NORTHEAST SUFFOLK  -  Winter Weather Advisory Winter Weather Advisory        NORTHERN NASSAU  -  Winter Weather Advisory Winter Weather Advisory        NORTHWEST SUFFOLK  -  Winter Weather Advisory Winter Weather Advisory        SOUTHEAST SUFFOLK  -  Winter Weather Advisory Winter Weather Advisory        SOUTHERN NASSAU  -  Winter Weather Advisory Winter Weather Advisory        SOUTHWEST SUFFOLK  -  Winter Weather Advisory Winter Weather Advisory      

Active alerts

Northern Nassau
  Details for Northern Nassau Winter Weather Advisory
Southern Nassau
  Details for Southern Nassau Winter Weather Advisory
Northwest Suffolk
  Details for Northwest Suffolk Winter Weather Advisory
Southwest Suffolk
  Details for Southwest Suffolk Winter Weather Advisory
Northeast Suffolk
  Details for Northeast Suffolk Winter Weather Advisory
Southeast Suffolk
  Details for Southeast Suffolk Winter Weather Advisory


WXM80 ListenWXM80 Stop

You find our weather info also at:

UK Metoffice

WeatherCloud

Weather Underground

Northeastern Weather Network

AWEKAS

Citizen Weather Observer Program (CWOP)

HAMweather, WeatherForYou, PWS Weather


Weather Underground History page Text

Daily Summary for June 16, 2017 Units:  Metric    English   Both
« Previous Day
Next Day »
Daily Weekly Monthly Yearly Custom
  High: Low: Average:
Temperature: 19.4 °C 15.1 °C 17.6 °C
Dew Point: 17.7 °C 13.8 °C 16.3 °C
Humidity: 97 % 83 % 93 %
Wind Speed: 8.4 km/h 0 km/h 0.8 km/h
Wind Gust: 18.5 km/h - -
Wind:- - ESE
Pressure: 1016.1 hPa 1012.1 hPa -
Precipitation: 0.76 mm    
Historical Graphs
 
 
Tabular Data for June 16, 2017
Time Temperature Dew Point Pressure Wind Wind Speed Wind Gust Humidity Rainfall Rate (Hourly)
00:03 16.7 °C 14 °C 1016.1 hPa Calm     84 % 0 mm
00:08 16.7 °C 13.9 °C 1016.1 hPa Calm     84 % 0 mm
00:13 16.7 °C 14.1 °C 1016.1 hPa SSE 1.9 km/h 5.6 km/h 85 % 0 mm
00:18 16.6 °C 14.1 °C 1016.1 hPa SE 5 km/h 13 km/h 85 % 0 mm
00:23 16.6 °C 14.3 °C 1015.8 hPa SSE 4.5 km/h 9.3 km/h 86 % 0 mm
00:28 16.6 °C 14.2 °C 1015.8 hPa SSE 0.6 km/h 3.7 km/h 86 % 0 mm
00:33 16.6 °C 14.4 °C 1015.8 hPa SSE 0.3 km/h 1.9 km/h 87 % 0 mm
00:38 16.6 °C 14.4 °C 1016.1 hPa SSE 0.5 km/h 3.2 km/h 87 % 0 mm
00:43 16.5 °C 14.3 °C 1016.1 hPa Calm     87 % 0 mm
00:48 16.5 °C 14.3 °C 1016.1 hPa Calm     87 % 0 mm
00:53 16.4 °C 14.3 °C 1016.1 hPa Calm     87 % 0 mm
00:58 16.4 °C 14.3 °C 1016.1 hPa SSE 0.5 km/h 1.9 km/h 87 % 0 mm
01:03 16.4 °C 14.4 °C 1016.1 hPa Calm     88 % 0 mm
01:08 16.4 °C 14.4 °C 1016.1 hPa Calm     88 % 0 mm
01:14 16.4 °C 14.4 °C 1016.1 hPa Calm   1.9 km/h 88 % 0 mm
01:19 16.4 °C 14.4 °C 1016.1 hPa Calm   1.9 km/h 88 % 0 mm
01:24 16.3 °C 14.3 °C 1015.8 hPa Calm     88 % 0 mm
01:29 16.3 °C 14.5 °C 1015.8 hPa SSE 0.3 km/h 1.9 km/h 89 % 0 mm
01:34 16.3 °C 14.5 °C 1016.1 hPa Calm     89 % 0 mm
01:39 16.3 °C 14.5 °C 1015.8 hPa SSE 0.2 km/h 3.7 km/h 89 % 0 mm
01:44 16.3 °C 14.5 °C 1015.8 hPa SSE 0.2 km/h 5.6 km/h 89 % 0 mm
01:49 16.3 °C 14.4 °C 1015.8 hPa SSE 0.5 km/h 1.9 km/h 89 % 0 mm
01:54 16.3 °C 14.4 °C 1015.8 hPa Calm   1.9 km/h 89 % 0 mm
01:59 16.3 °C 14.4 °C 1015.8 hPa SSE 0.2 km/h 1.9 km/h 89 % 0 mm
02:04 16.3 °C 14.6 °C 1015.5 hPa Calm     90 % 0 mm
02:09 16.2 °C 14.6 °C 1015.5 hPa Calm     90 % 0 mm
02:14 16.2 °C 14.5 °C 1015.5 hPa SSE 0.2 km/h 1.9 km/h 90 % 0 mm
02:19 16.1 °C 14.4 °C 1015.5 hPa Calm   1.9 km/h 90 % 0 mm
02:24 16.1 °C 14.4 °C 1015.5 hPa Calm     90 % 0 mm
02:29 16 °C 14.3 °C 1015.1 hPa SSE 0.2 km/h 1.9 km/h 90 % 0 mm
02:35 15.9 °C 14.3 °C 1015.1 hPa SSE 1.4 km/h 5.6 km/h 90 % 0 mm
02:40 15.9 °C 14.5 °C 1015.1 hPa SSE 0.3 km/h 3.7 km/h 91 % 0 mm
02:45 15.9 °C 14.5 °C 1015.1 hPa SSE 0.2 km/h 1.9 km/h 91 % 0 mm
02:50 15.9 °C 14.5 °C 1015.1 hPa Calm     91 % 0 mm
02:55 15.9 °C 14.5 °C 1015.1 hPa SSE 1.1 km/h 5.6 km/h 91 % 0 mm
03:00 15.9 °C 14.4 °C 1015.5 hPa Calm   1.9 km/h 91 % 0 mm
03:05 15.9 °C 14.4 °C 1015.1 hPa SSE 0.2 km/h 1.9 km/h 91 % 0 mm
03:10 15.9 °C 14.4 °C 1015.1 hPa SSE 0.2 km/h 1.9 km/h 91 % 0 mm
03:11 15.9 °C 14.6 °C 1015.1 hPa Calm   1.9 km/h 92 % 0 mm
03:16 15.9 °C 14.6 °C 1015.1 hPa Calm   1.6 km/h 92 % 0 mm
03:21 15.9 °C 14.6 °C 1015.1 hPa SSE 0.5 km/h 3.7 km/h 92 % 0 mm
03:22 15.9 °C 14.6 °C 1015.1 hPa Calm     92 % 0 mm
03:27 15.8 °C 14.6 °C 1015.1 hPa Calm     92 % 0 mm
03:32 15.8 °C 14.6 °C 1015.1 hPa Calm     92 % 0 mm
03:37 15.8 °C 14.5 °C 1015.1 hPa Calm     92 % 0 mm
03:42 15.8 °C 14.5 °C 1015.1 hPa Calm     92 % 0 mm
03:47 15.7 °C 14.4 °C 1015.1 hPa Calm   1.9 km/h 92 % 0 mm
03:52 15.7 °C 14.4 °C 1015.1 hPa Calm     92 % 0 mm
03:57 15.7 °C 14.4 °C 1015.1 hPa Calm     92 % 0 mm
04:02 15.6 °C 14.3 °C 1015.1 hPa Calm     92 % 0 mm
04:03 15.6 °C 14.3 °C 1015.1 hPa Calm     92 % 0 mm
04:08 15.6 °C 14.3 °C 1015.1 hPa Calm     92 % 0 mm
04:14 15.6 °C 14.3 °C 1015.1 hPa Calm     92 % 0 mm
04:19 15.5 °C 14.2 °C 1015.1 hPa Calm     92 % 0 mm
04:24 15.4 °C 14.2 °C 1015.1 hPa Calm   1.9 km/h 92 % 0 mm
04:29 15.4 °C 14.1 °C 1015.1 hPa Calm   1.9 km/h 92 % 0 mm
04:34 15.3 °C 14.1 °C 1015.1 hPa Calm     92 % 0 mm
04:39 15.3 °C 14.1 °C 1014.8 hPa Calm     92 % 0 mm
04:44 15.3 °C 14 °C 1015.1 hPa Calm     92 % 0 mm
04:49 15.2 °C 13.8 °C 1015.1 hPa Calm     91 % 0 mm
04:54 15.2 °C 13.9 °C 1014.8 hPa Calm     92 % 0 mm
04:59 15.2 °C 13.9 °C 1014.8 hPa Calm     92 % 0 mm
05:04 15.2 °C 13.9 °C 1014.8 hPa Calm     92 % 0 mm
05:09 15.1 °C 14 °C 1014.4 hPa Calm     93 % 0 mm
05:14 15.1 °C 14 °C 1014.4 hPa Calm     93 % 0 mm
05:19 15.1 °C 14 °C 1014.4 hPa Calm     93 % 0 mm
05:24 15.1 °C 14 °C 1014.8 hPa Calm     93 % 0 mm
05:29 15.1 °C 14.2 °C 1014.8 hPa Calm     94 % 0 mm
05:34 15.1 °C 14.2 °C 1014.8 hPa SSE 0.2 km/h 1.9 km/h 94 % 0 mm
05:39 15.1 °C 14.2 °C 1014.8 hPa Calm   1.9 km/h 94 % 0 mm
05:44 15.1 °C 14.1 °C 1014.8 hPa Calm   1.6 km/h 94 % 0 mm
05:49 15.1 °C 14.2 °C 1015.1 hPa Calm     94 % 0 mm
05:54 15.2 °C 14.2 °C 1015.1 hPa Calm     94 % 0 mm
05:59 15.2 °C 14.2 °C 1015.1 hPa Calm     94 % 0 mm
06:04 15.2 °C 14.2 °C 1015.1 hPa Calm     94 % 0 mm
06:09 15.2 °C 14.4 °C 1015.1 hPa Calm     95 % 0 mm
06:14 15.4 °C 14.6 °C 1015.1 hPa Calm     95 % 0 mm
06:20 15.6 °C 14.8 °C 1015.1 hPa SSE 0.5 km/h 1.9 km/h 95 % 0 mm
06:25 15.8 °C 15.2 °C 1014.8 hPa East 0.2 km/h 1.9 km/h 96 % 0 mm
06:30 15.9 °C 15.3 °C 1014.8 hPa Calm     96 % 0 mm
06:35 16.1 °C 15.5 °C 1014.8 hPa East 0.5 km/h 1.9 km/h 96 % 0 mm
06:40 16.2 °C 15.4 °C 1014.8 hPa Calm   5.6 km/h 95 % 0 mm
06:45 16.4 °C 15.6 °C 1014.8 hPa SE 1 km/h 3.7 km/h 95 % 0 mm
06:50 16.6 °C 15.8 °C 1014.8 hPa NNE 0.5 km/h 5.6 km/h 95 % 0 mm
06:55 16.6 °C 15.7 °C 1015.1 hPa Calm   1.9 km/h 94 % 0 mm
07:00 16.7 °C 15.7 °C 1015.1 hPa East 1.8 km/h 4.8 km/h 94 % 0 mm
07:05 16.8 °C 15.7 °C 1015.1 hPa Calm     93 % 0 mm
07:10 16.8 °C 15.7 °C 1015.1 hPa ESE 0.8 km/h 3.7 km/h 93 % 0 mm
07:15 16.8 °C 15.5 °C 1015.1 hPa ESE 1.8 km/h 3.7 km/h 92 % 0 mm
07:20 16.9 °C 15.6 °C 1015.1 hPa ESE 0.6 km/h 1.9 km/h 92 % 0 mm
07:25 17 °C 15.7 °C 1014.8 hPa SE 0.2 km/h 5.6 km/h 92 % 0 mm
07:30 17.1 °C 15.8 °C 1015.1 hPa SE 0.2 km/h 1.9 km/h 92 % 0 mm
07:35 17.2 °C 15.8 °C 1015.1 hPa SE 1.3 km/h 5.6 km/h 92 % 0 mm
07:40 17.3 °C 15.8 °C 1015.1 hPa SE 4 km/h 11.1 km/h 91 % 0 mm
07:45 17.4 °C 15.9 °C 1015.1 hPa ESE 1.6 km/h 3.7 km/h 91 % 0 mm
07:50 17.6 °C 15.9 °C 1015.1 hPa SSW 1.8 km/h 3.7 km/h 90 % 0 mm
07:55 17.8 °C 16 °C 1015.1 hPa SSE 8.4 km/h 18.5 km/h 89 % 0 mm
08:00 18 °C 16.2 °C 1015.1 hPa SE 0.8 km/h 1.9 km/h 89 % 0 mm
08:05 18.1 °C 16.1 °C 1014.8 hPa SE 5 km/h 11.1 km/h 88 % 0 mm
08:10 18.2 °C 16 °C 1014.8 hPa SE 1.9 km/h 13 km/h 87 % 0 mm
08:15 18.3 °C 15.9 °C 1014.8 hPa SE 7.1 km/h 9.3 km/h 86 % 0 mm
08:20 18.4 °C 16.2 °C 1014.8 hPa ESE 2.7 km/h 9.3 km/h 87 % 0 mm
08:25 18.7 °C 16.3 °C 1014.8 hPa South 3.2 km/h 13 km/h 86 % 0 mm
08:30 18.9 °C 16.5 °C 1014.8 hPa East 1.6 km/h 7.4 km/h 86 % 0 mm
08:36 19.2 °C 16.6 °C 1015.1 hPa ESE 4.8 km/h 12.9 km/h 85 % 0 mm
08:41 19.2 °C 16.4 °C 1015.1 hPa SSE 3.1 km/h 6.4 km/h 84 % 0 mm
08:46 19.2 °C 16.4 °C 1015.1 hPa Calm   16.1 km/h 84 % 0 mm
08:51 19.2 °C 16.4 °C 1015.1 hPa East 1.6 km/h 4.8 km/h 84 % 0 mm
08:56 19.1 °C 16.3 °C 1015.1 hPa East 1.6 km/h 8 km/h 84 % 0 mm
09:01 19.1 °C 16.1 °C 1015.1 hPa ESE 6.1 km/h 14.8 km/h 83 % 0 mm
09:06 19 °C 16.2 °C 1015.1 hPa ESE 3.4 km/h 7.4 km/h 84 % 0 mm
09:11 19 °C 16.4 °C 1014.8 hPa ESE 0.2 km/h 5.6 km/h 85 % 0 mm
09:16 19 °C 16.4 °C 1014.8 hPa ESE 1.8 km/h 3.7 km/h 85 % 0 mm
09:21 19 °C 16.4 °C 1014.8 hPa ESE 3.7 km/h 7.4 km/h 85 % 0 mm
09:31 19.1 °C 16.5 °C 1014.8 hPa ESE 3.9 km/h 5.6 km/h 85 % 0 mm
09:36 19.1 °C 16.6 °C 1014.8 hPa SE 1.9 km/h 8 km/h 85 % 0 mm
09:41 19.2 °C 16.6 °C 1014.4 hPa SE 0.6 km/h 5.6 km/h 85 % 0 mm
09:46 19.3 °C 16.5 °C 1014.4 hPa East 1.8 km/h 5.6 km/h 84 % 0 mm
09:51 19.3 °C 16.7 °C 1014.4 hPa Calm   11.1 km/h 85 % 0 mm
09:56 19.4 °C 16.8 °C 1014.4 hPa SE 1.6 km/h 6.4 km/h 85 % 0 mm
10:01 19.3 °C 16.7 °C 1014.4 hPa SE 2.3 km/h 3.7 km/h 85 % 0 mm
10:06 19.3 °C 16.7 °C 1014.1 hPa East 1.9 km/h 3.7 km/h 85 % 0 mm
10:11 19.2 °C 16.6 °C 1014.4 hPa ENE 1.6 km/h 3.7 km/h 85 % 0 mm
10:16 19.1 °C 16.7 °C 1014.1 hPa ENE 1.3 km/h 3.7 km/h 86 % 0 mm
10:21 19.1 °C 16.7 °C 1014.4 hPa ENE 1 km/h 3.7 km/h 86 % 0 mm
10:26 19 °C 16.6 °C 1014.1 hPa ENE 1.3 km/h 3.7 km/h 86 % 0 mm
10:31 18.9 °C 16.7 °C 1014.4 hPa ENE 1.6 km/h 1.9 km/h 87 % 0 mm
10:36 18.8 °C 16.6 °C 1014.4 hPa ENE 1 km/h 3.7 km/h 87 % 0 mm
10:41 18.8 °C 16.7 °C 1014.4 hPa ENE 1.1 km/h 3.7 km/h 88 % 0 mm
10:46 18.7 °C 16.9 °C 1014.4 hPa NW 0.8 km/h 1.9 km/h 89 % 0 mm
10:52 18.7 °C 16.8 °C 1014.4 hPa Calm   1.9 km/h 89 % 0 mm
10:57 18.7 °C 17 °C 1014.4 hPa Calm     90 % 0 mm
11:02 18.7 °C 17 °C 1014.8 hPa Calm   3.7 km/h 90 % 0.25 mm
11:07 18.7 °C 17.2 °C 1014.4 hPa NW 0.2 km/h 1.9 km/h 91 % 0.51 mm
11:12 18.7 °C 17.4 °C 1014.4 hPa Calm     92 % 0.51 mm
11:17 18.8 °C 17.6 °C 1014.4 hPa Calm   1.9 km/h 93 % 0.51 mm
11:22 18.9 °C 17.7 °C 1014.1 hPa NW 0.6 km/h 1.9 km/h 93 % 0.51 mm
11:27 18.9 °C 17.7 °C 1014.1 hPa NW 0.2 km/h 1.9 km/h 93 % 0.51 mm
11:32 18.8 °C 17.5 °C 1014.1 hPa West 0.5 km/h 1.9 km/h 92 % 0.51 mm
11:37 18.8 °C 17.7 °C 1014.1 hPa Calm   1.9 km/h 93 % 0.51 mm
11:42 18.8 °C 17.4 °C 1014.1 hPa West 0.6 km/h 1.9 km/h 92 % 0.51 mm
11:47 18.8 °C 17.4 °C 1014.1 hPa West 0.5 km/h 3.7 km/h 92 % 0.51 mm
11:48 18.8 °C 17.4 °C 1014.1 hPa West 0.6 km/h 1.9 km/h 92 % 0.51 mm
11:53 18.8 °C 17.4 °C 1014.1 hPa West 1 km/h 3.7 km/h 92 % 0.51 mm
11:58 18.8 °C 17.7 °C 1014.1 hPa West 0.5 km/h 1.9 km/h 93 % 0.25 mm
12:03 18.8 °C 17.7 °C 1014.1 hPa ESE 1.6 km/h 3.7 km/h 93 % 0.25 mm
12:08 18.8 °C 17.4 °C 1014.1 hPa NE 1.3 km/h 3.7 km/h 92 % 0 mm
12:13 18.8 °C 17.4 °C 1014.1 hPa NE 1.1 km/h 3.7 km/h 92 % 0 mm
12:18 18.8 °C 17.4 °C 1013.8 hPa ENE 1.6 km/h 3.7 km/h 92 % 0 mm
12:23 18.8 °C 17.5 °C 1014.1 hPa East 0.8 km/h 3.7 km/h 92 % 0 mm
12:28 18.7 °C 17.2 °C 1014.1 hPa NE 3.4 km/h 7.4 km/h 91 % 0 mm
12:33 18.6 °C 17.1 °C 1013.8 hPa East 0.6 km/h 1.9 km/h 91 % 0 mm
12:39 18.6 °C 17.1 °C 1013.8 hPa Calm   1.9 km/h 91 % 0 mm
12:44 18.6 °C 17.1 °C 1013.8 hPa NE 0.2 km/h 5.6 km/h 91 % 0 mm
12:49 18.6 °C 17.1 °C 1013.8 hPa NE 2.9 km/h 5.6 km/h 91 % 0 mm
12:54 18.5 °C 17.2 °C 1013.8 hPa East 2.3 km/h 7.4 km/h 92 % 0 mm
12:59 18.5 °C 17.2 °C 1013.8 hPa ENE 3.4 km/h 5.6 km/h 92 % 0 mm
13:04 18.5 °C 17.2 °C 1013.8 hPa ENE 1.9 km/h 3.7 km/h 92 % 0 mm
13:09 18.4 °C 17.1 °C 1013.8 hPa NE 4 km/h 5.6 km/h 92 % 0 mm
13:14 18.4 °C 17.2 °C 1013.8 hPa East 1.6 km/h 3.7 km/h 93 % 0 mm
13:19 18.3 °C 17 °C 1013.8 hPa ENE 1.8 km/h 3.7 km/h 92 % 0 mm
13:24 18.3 °C 16.9 °C 1013.8 hPa ENE 0.3 km/h 3.7 km/h 92 % 0 mm
13:29 18.3 °C 17.2 °C 1013.8 hPa ENE 0.6 km/h 3.2 km/h 93 % 0 mm
13:34 18.3 °C 17.2 °C 1013.8 hPa ENE 1 km/h 3.7 km/h 93 % 0 mm
13:39 18.3 °C 17.2 °C 1013.8 hPa NE 1 km/h 3.7 km/h 93 % 0 mm
13:44 18.3 °C 17.2 °C 1013.8 hPa NE 1 km/h 3.7 km/h 93 % 0 mm
13:49 18.3 °C 17.1 °C 1013.8 hPa NE 0.6 km/h 1.9 km/h 93 % 0 mm
13:55 18.3 °C 17.2 °C 1013.8 hPa ENE 0.3 km/h 3.7 km/h 93 % 0 mm
14:00 18.3 °C 17.2 °C 1013.4 hPa ENE 1.1 km/h 1.9 km/h 93 % 0 mm
14:05 18.3 °C 17.1 °C 1013.4 hPa ENE 0.6 km/h 3.7 km/h 93 % 0 mm
14:10 18.2 °C 17.1 °C 1013.4 hPa ENE 0.8 km/h 1.9 km/h 93 % 0 mm
14:15 18.2 °C 17 °C 1013.4 hPa ENE 1.1 km/h 3.7 km/h 93 % 0 mm
14:20 18.2 °C 17.2 °C 1013.1 hPa ENE 2.1 km/h 3.7 km/h 94 % 0 mm
14:25 18.2 °C 17.2 °C 1013.1 hPa NE 1.3 km/h 3.7 km/h 94 % 0 mm
14:30 18.2 °C 17.2 °C 1013.1 hPa ENE 1.6 km/h 3.7 km/h 94 % 0 mm
14:35 18.2 °C 17.2 °C 1013.1 hPa ENE 0.8 km/h 3.7 km/h 94 % 0 mm
14:40 18.3 °C 17.4 °C 1013.1 hPa ENE 1.9 km/h 3.7 km/h 95 % 0 mm
14:45 18.3 °C 17.5 °C 1013.1 hPa ENE 1.4 km/h 3.7 km/h 95 % 0 mm
14:50 18.4 °C 17.6 °C 1013.1 hPa ENE 0.8 km/h 1.9 km/h 95 % 0 mm
14:55 18.4 °C 17.6 °C 1013.1 hPa East 0.6 km/h 1.9 km/h 95 % 0 mm
15:00 18.5 °C 17.7 °C 1012.8 hPa East 1.3 km/h 3.7 km/h 95 % 0 mm
15:01 18.4 °C 17.6 °C 1012.8 hPa East 1.4 km/h 1.9 km/h 95 % 0 mm
15:06 18.5 °C 17.7 °C 1012.8 hPa East 0.8 km/h 3.7 km/h 95 % 0 mm
15:11 18.5 °C 17.5 °C 1013.1 hPa ENE 0.3 km/h 1.9 km/h 94 % 0 mm
15:16 18.5 °C 17.5 °C 1012.8 hPa ENE 0.5 km/h 1.9 km/h 94 % 0 mm
15:21 18.4 °C 17.4 °C 1013.1 hPa ENE 2.1 km/h 5.6 km/h 94 % 0 mm
15:26 18.3 °C 17.3 °C 1013.1 hPa NE 1.4 km/h 3.7 km/h 94 % 0 mm
15:31 18.3 °C 17.1 °C 1013.1 hPa ENE 1.3 km/h 1.9 km/h 93 % 0 mm
15:37 18.2 °C 17.2 °C 1013.1 hPa ENE 2.1 km/h 5.6 km/h 94 % 0 mm
15:42 18.2 °C 17.2 °C 1013.1 hPa NE 0.6 km/h 5.6 km/h 94 % 0 mm
15:47 18.1 °C 17.1 °C 1012.8 hPa NE 4.7 km/h 9.3 km/h 94 % 0 mm
15:52 18.1 °C 17.1 °C 1012.8 hPa East 4.8 km/h 11.1 km/h 94 % 0 mm
15:57 18.1 °C 17.1 °C 1012.8 hPa ENE 1.4 km/h 5.6 km/h 94 % 0 mm
16:02 18.1 °C 17.1 °C 1012.8 hPa ENE 3.9 km/h 7.4 km/h 94 % 0 mm
16:07 18.1 °C 17.1 °C 1012.8 hPa ENE 2.1 km/h 7.4 km/h 94 % 0 mm
16:12 18.1 °C 17.1 °C 1012.8 hPa North 1.8 km/h 5.6 km/h 94 % 0 mm
16:17 18 °C 17 °C 1012.8 hPa ENE 3.9 km/h 9.3 km/h 94 % 0 mm
16:22 18 °C 17 °C 1012.8 hPa East 2.3 km/h 9.3 km/h 94 % 0 mm
16:27 18.1 °C 17.1 °C 1012.8 hPa ENE 0.5 km/h 5.6 km/h 94 % 0 mm
16:32 18.1 °C 17.1 °C 1012.8 hPa ENE 1.1 km/h 6.4 km/h 94 % 0 mm
16:36 18 °C 17.1 °C 1012.8 hPa Calm   8 km/h 94 % 0 mm
16:41 18 °C 17 °C 1012.8 hPa ENE 0.8 km/h 3.7 km/h 94 % 0 mm
16:46 18.1 °C 17.2 °C 1012.8 hPa Calm   4.8 km/h 95 % 0 mm
16:51 18.1 °C 17.2 °C 1012.4 hPa Calm   1.9 km/h 95 % 0 mm
16:56 18.1 °C 17.3 °C 1012.8 hPa Calm   1.6 km/h 95 % 0 mm
17:01 18.1 °C 17.3 °C 1012.4 hPa Calm   1.9 km/h 95 % 0 mm
17:06 18.2 °C 17.3 °C 1012.4 hPa East 0.2 km/h 1.9 km/h 95 % 0 mm
17:11 18.2 °C 17.3 °C 1012.1 hPa Calm   1.6 km/h 95 % 0 mm
17:12 18.2 °C 17.3 °C 1012.4 hPa Calm   1.9 km/h 95 % 0 mm
17:17 18.2 °C 17.3 °C 1012.4 hPa Calm   1.9 km/h 95 % 0 mm
17:22 18.2 °C 17.3 °C 1012.1 hPa NNW 0.2 km/h 1.9 km/h 95 % 0 mm
17:27 18.2 °C 17.4 °C 1012.1 hPa Calm   1.9 km/h 95 % 0 mm
17:32 18.2 °C 17.4 °C 1012.1 hPa Calm     95 % 0 mm
17:37 18.2 °C 17.4 °C 1012.1 hPa Calm     95 % 0 mm
17:42 18.2 °C 17.4 °C 1012.4 hPa Calm   3.7 km/h 95 % 0 mm
17:47 18.2 °C 17.3 °C 1012.1 hPa East 2.4 km/h 5.6 km/h 95 % 0 mm
17:52 18.2 °C 17.3 °C 1012.1 hPa ENE 1.1 km/h 5.6 km/h 95 % 0 mm
17:58 18.2 °C 17.3 °C 1012.1 hPa NE 1.6 km/h 3.7 km/h 95 % 0 mm
18:03 18.1 °C 17.3 °C 1012.1 hPa ENE 1.1 km/h 3.7 km/h 95 % 0 mm
18:08 18.1 °C 17.3 °C 1012.1 hPa ENE 0.5 km/h 3.7 km/h 95 % 0 mm
18:13 18.2 °C 17.3 °C 1012.4 hPa ENE 0.2 km/h 1.9 km/h 95 % 0 mm
18:18 18.2 °C 17.5 °C 1012.1 hPa ENE 0.6 km/h 3.7 km/h 96 % 0 mm
18:23 18.2 °C 17.5 °C 1012.1 hPa Calm     96 % 0 mm
18:28 18.2 °C 17.5 °C 1012.4 hPa Calm   1.9 km/h 96 % 0 mm
18:33 18.2 °C 17.5 °C 1012.4 hPa ENE 0.2 km/h 1.9 km/h 96 % 0 mm
18:38 18.2 °C 17.5 °C 1012.4 hPa Calm   1.9 km/h 96 % 0 mm
18:43 18.2 °C 17.5 °C 1012.4 hPa Calm     96 % 0 mm
18:48 18.2 °C 17.5 °C 1012.4 hPa Calm     96 % 0 mm
18:53 18.1 °C 17.4 °C 1012.4 hPa Calm   1.9 km/h 96 % 0 mm
18:58 18.1 °C 17.4 °C 1012.4 hPa NE 1.6 km/h 5.6 km/h 96 % 0 mm
19:03 18.1 °C 17.4 °C 1012.4 hPa Calm     96 % 0 mm
19:08 18.1 °C 17.4 °C 1012.4 hPa Calm   1.9 km/h 96 % 0 mm
19:14 18.1 °C 17.4 °C 1012.4 hPa Calm     96 % 0 mm
19:19 18.1 °C 17.4 °C 1012.8 hPa Calm     96 % 0 mm
19:24 18.1 °C 17.4 °C 1012.4 hPa Calm   1.9 km/h 96 % 0 mm
19:29 18 °C 17.3 °C 1012.8 hPa Calm   1.9 km/h 96 % 0 mm
19:34 18 °C 17.3 °C 1012.4 hPa Calm   1.9 km/h 96 % 0 mm
19:39 18 °C 17.3 °C 1012.8 hPa Calm     96 % 0 mm
19:44 17.9 °C 17.3 °C 1012.8 hPa Calm   1.9 km/h 96 % 0 mm
19:49 17.9 °C 17.3 °C 1012.8 hPa Calm     96 % 0 mm
19:54 17.9 °C 17.3 °C 1012.4 hPa Calm   1.9 km/h 96 % 0 mm
19:59 17.9 °C 17.3 °C 1012.4 hPa North 0.5 km/h 1.9 km/h 96 % 0 mm
20:04 17.9 °C 17.3 °C 1012.4 hPa Calm   1.9 km/h 96 % 0 mm
20:09 17.9 °C 17.3 °C 1012.4 hPa ENE 0.2 km/h 1.9 km/h 96 % 0 mm
20:14 17.9 °C 17.3 °C 1012.4 hPa East 0.5 km/h 3.7 km/h 96 % 0 mm
20:19 17.9 °C 17.3 °C 1012.4 hPa ENE 1.1 km/h 5.6 km/h 96 % 0 mm
20:24 17.9 °C 17.3 °C 1012.4 hPa ENE 0.5 km/h 3.2 km/h 96 % 0 mm
20:29 17.9 °C 17.3 °C 1012.4 hPa Calm     96 % 0 mm
20:34 17.9 °C 17.3 °C 1012.4 hPa Calm     96 % 0 mm
20:39 17.9 °C 17.3 °C 1012.4 hPa Calm     96 % 0 mm
20:44 17.9 °C 17.3 °C 1012.4 hPa Calm     96 % 0 mm
20:49 17.9 °C 17.3 °C 1012.4 hPa Calm     96 % 0 mm
20:54 17.9 °C 17.4 °C 1012.4 hPa Calm     97 % 0 mm
20:59 17.9 °C 17.4 °C 1012.4 hPa Calm     97 % 0 mm
21:04 17.9 °C 17.4 °C 1012.4 hPa Calm     97 % 0 mm
21:09 17.9 °C 17.4 °C 1012.4 hPa Calm     97 % 0 mm
21:14 17.9 °C 17.4 °C 1012.4 hPa Calm     97 % 0 mm
21:20 17.9 °C 17.4 °C 1012.4 hPa Calm     97 % 0 mm
21:25 17.9 °C 17.4 °C 1012.4 hPa Calm     97 % 0 mm
21:30 17.9 °C 17.4 °C 1012.4 hPa Calm     97 % 0 mm
21:35 17.9 °C 17.4 °C 1012.4 hPa Calm     97 % 0 mm
21:40 17.9 °C 17.4 °C 1012.4 hPa Calm     97 % 0 mm
21:45 17.9 °C 17.4 °C 1012.4 hPa Calm     97 % 0 mm
21:50 17.9 °C 17.4 °C 1012.4 hPa Calm     97 % 0 mm
21:55 17.9 °C 17.4 °C 1012.4 hPa Calm     97 % 0 mm
22:00 17.8 °C 17.3 °C 1012.1 hPa Calm     97 % 0 mm
22:01 17.8 °C 17.3 °C 1012.1 hPa ENE 0.2 km/h   97 % 0 mm
22:06 17.8 °C 17.3 °C 1012.1 hPa Calm     97 % 0 mm
22:11 17.8 °C 17.3 °C 1012.1 hPa Calm   1.6 km/h 97 % 0 mm
22:16 17.8 °C 17.3 °C 1012.1 hPa Calm     97 % 0 mm
22:21 17.8 °C 17.3 °C 1012.1 hPa Calm     97 % 0 mm
22:26 17.8 °C 17.3 °C 1012.1 hPa Calm   3.2 km/h 97 % 0 mm
22:31 17.8 °C 17.4 °C 1012.1 hPa Calm   1.6 km/h 97 % 0 mm
22:36 17.8 °C 17.3 °C 1012.1 hPa ENE 0.2 km/h 1.9 km/h 97 % 0 mm
22:41 17.8 °C 17.3 °C 1012.1 hPa Calm     97 % 0 mm
22:46 17.8 °C 17.3 °C 1012.1 hPa Calm     97 % 0 mm
22:51 17.8 °C 17.3 °C 1012.1 hPa Calm   3.2 km/h 97 % 0 mm
22:56 17.7 °C 17.2 °C 1012.1 hPa Calm   6.4 km/h 97 % 0 mm
23:01 17.7 °C 17.2 °C 1012.1 hPa Calm     97 % 0 mm
23:06 17.7 °C 17.2 °C 1012.1 hPa Calm     97 % 0 mm
23:11 17.7 °C 17.2 °C 1012.1 hPa NE 2.1 km/h 5.6 km/h 97 % 0 mm
23:16 17.7 °C 17.2 °C 1012.4 hPa NE 0.5 km/h 3.2 km/h 97 % 0 mm
23:21 17.7 °C 17.2 °C 1012.4 hPa NE 0.3 km/h 1.9 km/h 97 % 0 mm
23:26 17.7 °C 17.2 °C 1012.4 hPa NE 0.8 km/h 5.6 km/h 97 % 0 mm
23:31 17.7 °C 17.2 °C 1012.4 hPa NE 2.3 km/h 7.4 km/h 97 % 0 mm
23:36 17.8 °C 17.3 °C 1012.4 hPa NE 1.6 km/h 7.4 km/h 97 % 0 mm
23:41 17.8 °C 17.3 °C 1012.8 hPa NE 1.6 km/h 3.2 km/h 97 % 0 mm
23:46 17.8 °C 17.3 °C 1012.8 hPa NE 2.3 km/h 9.3 km/h 97 % 0.25 mm
23:51 17.8 °C 17.3 °C 1012.8 hPa NE 1.3 km/h 5.6 km/h 97 % 0.25 mm
23:56 17.8 °C 17.3 °C 1012.8 hPa ENE 2.3 km/h 8 km/h 97 % 0.25 mm
Crab Meadow Weather
Compliments of Weather Underground - 3 mb

Script developed by  Jim McMurry - jmcmurry@mwt.net Adapted for the template by  Wim van der Kuil - Leuven-Template.eu

Recycling: A used aluminum can is recycled and back on the grocery shelf as a new can, in as little as 60 days.